Aeroporto :
LOGIN :

Iscrizione | Disclaimer

   EN    FR    IT 

 










Sommario :    VFR   VFR Marginale   IFR   IFR Intensivo   IFR Molto Intensivo
Visibilità : 
Base nubi : 
>= 8 km
>= 3000ft
5 / 8 km
1000 / 3000 ft
1500m / 5 km
500 / 1000 ft
800 / 1500m
200 / 500 ft
< 800m
< 200 ft
Simboli :   Temporali  Nebbia  Neve Forte  Precipitazioni Forti  Vento > 20 kt
SIGMETs :   Varie  Temporali  Ghiacco  Turbolenza  Onda orograficha  Ceneri Vulcaniche






- Altitudine del aeroporto : 143 ft
- Codice IATA : VDP


EKVD - Kolding Vamdrup

ULTIMO METAR :
  • 240450Z AUTO 13005KT 100V160 //// ///////// 03/02 Q1005

METARs OBSOLETI :
  • 240420Z AUTO 08006KT //// ///////// 03/02 Q1005
  • 240350Z AUTO 11005KT //// ///////// 03/02 Q1005
  • 240320Z AUTO 06004KT //// ///////// 03/02 Q1005
  • 240250Z AUTO 06004KT //// ///////// 03/02 Q1005
  • 240220Z AUTO 08004KT 050V110 //// ///////// 03/02 Q1005
  • 240150Z AUTO 09005KT //// ///////// 03/02 Q1005
  • 240120Z AUTO 11003KT //// ///////// 03/02 Q1005
  • 240050Z AUTO 12004KT //// ///////// 03/02 Q1005
  • 240020Z AUTO 14003KT //// ///////// 03/02 Q1006

Previsioni scadute.



MetMap, La meteo Aeronautica in un colpo d'occhio ! - Copyright ORBIFLY Dicembre 2007 - Disclaimer

ORBIFLY MET'MAP TEAM :

Programmazione e sviluppo : Alexandra Zaïnal
Concezione : Baudouin d'Aumeries
Supporto tecnico e logistico : Manuel Goepfert
Aiuto : Marc-Olivier Méhu
Aiuto per la traduzione : Arnaldo La Scala




FONTI E CREDITI :

   NOAA